WST606 MYNN-MYAM
Flight info
| Callsign | WST606 |
|---|---|
| Flight time | 0h 20m |
| Altitude | 13000 |
| Route | ZQA BR70V MRRSH |
| Aircraft | E145/M-SDFGIRW/S |
Departure
| Time | 2026-04-20 20:27 |
|---|---|
| Airport | Lynden Pindling International Airport (MYNN) |
Arrival
| Time | 2026-04-20 20:47 |
|---|---|
| Airport | Leonard M. Thompson International Airport (MYAM) |
| Time | Latitude | Longitude | Altitude | Speed | Heading |
|---|---|---|---|---|---|
| 2026-04-20 20:15 | 25.04744 | -77.46596 | 7 ft | 0 kts | 179° |
| 2026-04-20 20:22 | 25.04742 | -77.46598 | 7 ft | 0 kts | 232° |
| 2026-04-20 20:23 | 25.04744 | -77.46605 | 7 ft | 0 kts | 311° |
| 2026-04-20 20:23 | 25.04760 | -77.46616 | 7 ft | 5 kts | 321° |
| 2026-04-20 20:23 | 25.04772 | -77.46661 | 7 ft | 7 kts | 254° |
| 2026-04-20 20:23 | 25.04738 | -77.46706 | 7 ft | 8 kts | 228° |
| 2026-04-20 20:24 | 25.04712 | -77.46770 | 7 ft | 10 kts | 283° |
| 2026-04-20 20:24 | 25.04776 | -77.46854 | 7 ft | 16 kts | 314° |
| 2026-04-20 20:24 | 25.04863 | -77.46952 | 7 ft | 18 kts | 316° |
| 2026-04-20 20:24 | 25.04959 | -77.47060 | 7 ft | 20 kts | 314° |
| 2026-04-20 20:25 | 25.05061 | -77.47171 | 7 ft | 19 kts | 314° |
| 2026-04-20 20:25 | 25.05161 | -77.47289 | 7 ft | 21 kts | 316° |
| 2026-04-20 20:25 | 25.05220 | -77.47420 | 7 ft | 20 kts | 263° |
| 2026-04-20 20:25 | 25.05176 | -77.47529 | 7 ft | 6 kts | 224° |
| 2026-04-20 20:26 | 25.05142 | -77.47523 | 7 ft | 6 kts | 134° |
| 2026-04-20 20:26 | 25.05078 | -77.47451 | 7 ft | 35 kts | 135° |
| 2026-04-20 20:26 | 25.04723 | -77.47059 | 7 ft | 104 kts | 135° |
| 2026-04-20 20:26 | 25.04087 | -77.46352 | 29 ft | 149 kts | 135° |
| 2026-04-20 20:27 | 25.03307 | -77.45521 | 483 ft | 157 kts | 133° |
| 2026-04-20 20:27 | 25.02512 | -77.44657 | 1027 ft | 163 kts | 129° |
| 2026-04-20 20:27 | 25.02103 | -77.43543 | 1559 ft | 161 kts | 85° |
| 2026-04-20 20:27 | 25.02562 | -77.42322 | 1719 ft | 192 kts | 45° |
| 2026-04-20 20:28 | 25.03711 | -77.41382 | 2097 ft | 216 kts | 26° |
| 2026-04-20 20:28 | 25.05194 | -77.40801 | 2609 ft | 234 kts | 16° |
| 2026-04-20 20:28 | 25.06824 | -77.40363 | 3203 ft | 247 kts | 13° |
| 2026-04-20 20:28 | 25.08538 | -77.39965 | 3852 ft | 256 kts | 12° |
| 2026-04-20 20:29 | 25.10290 | -77.39575 | 4533 ft | 263 kts | 12° |
| 2026-04-20 20:29 | 25.12093 | -77.39178 | 5373 ft | 262 kts | 11° |
| 2026-04-20 20:29 | 25.13856 | -77.38792 | 6293 ft | 258 kts | 11° |
| 2026-04-20 20:29 | 25.15628 | -77.38403 | 7024 ft | 260 kts | 11° |
| 2026-04-20 20:30 | 25.17411 | -77.38012 | 7682 ft | 265 kts | 10° |
| 2026-04-20 20:30 | 25.19258 | -77.37606 | 8379 ft | 269 kts | 10° |
| 2026-04-20 20:30 | 25.21108 | -77.37199 | 9073 ft | 271 kts | 10° |
| 2026-04-20 20:30 | 25.22979 | -77.36789 | 9729 ft | 276 kts | 10° |
| 2026-04-20 20:31 | 25.24886 | -77.36369 | 10378 ft | 280 kts | 9° |
| 2026-04-20 20:31 | 25.26842 | -77.35940 | 10817 ft | 292 kts | 9° |
| 2026-04-20 20:31 | 25.28904 | -77.35487 | 11215 ft | 303 kts | 9° |
| 2026-04-20 20:31 | 25.31007 | -77.35024 | 11647 ft | 312 kts | 9° |
| 2026-04-20 20:32 | 25.33206 | -77.34541 | 12059 ft | 322 kts | 8° |
| 2026-04-20 20:32 | 25.35455 | -77.34045 | 12546 ft | 330 kts | 8° |
| 2026-04-20 20:32 | 25.37760 | -77.33537 | 12897 ft | 340 kts | 8° |
| 2026-04-20 20:32 | 25.40150 | -77.33011 | 12920 ft | 359 kts | 8° |
| 2026-04-20 20:33 | 25.42690 | -77.32452 | 12944 ft | 377 kts | 9° |
| 2026-04-20 20:33 | 25.45308 | -77.31873 | 12925 ft | 382 kts | 8° |
| 2026-04-20 20:33 | 25.47950 | -77.31290 | 12934 ft | 383 kts | 8° |
| 2026-04-20 20:33 | 25.50578 | -77.30711 | 12926 ft | 384 kts | 9° |
| 2026-04-20 20:34 | 25.53233 | -77.30125 | 12919 ft | 385 kts | 9° |
| 2026-04-20 20:34 | 25.55865 | -77.29543 | 12924 ft | 385 kts | 9° |
| 2026-04-20 20:34 | 25.58514 | -77.28957 | 12928 ft | 386 kts | 9° |
| 2026-04-20 20:34 | 25.61182 | -77.28406 | 12911 ft | 385 kts | 5° |
| 2026-04-20 20:35 | 25.63878 | -77.28082 | 12930 ft | 385 kts | 4° |
| 2026-04-20 20:35 | 25.66559 | -77.27776 | 12927 ft | 386 kts | 3° |
| 2026-04-20 20:35 | 25.69241 | -77.27478 | 12928 ft | 386 kts | 3° |
| 2026-04-20 20:35 | 25.71945 | -77.27179 | 12920 ft | 386 kts | 3° |
| 2026-04-20 20:36 | 25.74636 | -77.26882 | 12931 ft | 386 kts | 3° |
| 2026-04-20 20:36 | 25.77324 | -77.26586 | 12927 ft | 387 kts | 3° |
| 2026-04-20 20:36 | 25.80040 | -77.26286 | 12921 ft | 386 kts | 3° |
| 2026-04-20 20:36 | 25.82767 | -77.25985 | 12931 ft | 384 kts | 3° |
| 2026-04-20 20:37 | 25.85424 | -77.25691 | 12922 ft | 382 kts | 3° |
| 2026-04-20 20:37 | 25.88092 | -77.25397 | 12926 ft | 381 kts | 3° |
| 2026-04-20 20:37 | 25.90767 | -77.25101 | 12824 ft | 380 kts | 3° |
| 2026-04-20 20:37 | 25.93394 | -77.24811 | 12536 ft | 379 kts | 3° |
| 2026-04-20 20:38 | 25.96053 | -77.24517 | 12219 ft | 378 kts | 4° |
| 2026-04-20 20:38 | 25.98670 | -77.24227 | 11901 ft | 377 kts | 4° |
| 2026-04-20 20:38 | 26.01302 | -77.23936 | 11584 ft | 376 kts | 4° |
| 2026-04-20 20:38 | 26.03915 | -77.23646 | 11270 ft | 374 kts | 4° |
| 2026-04-20 20:39 | 26.06541 | -77.23355 | 10950 ft | 366 kts | 4° |
| 2026-04-20 20:39 | 26.09047 | -77.23077 | 10623 ft | 353 kts | 4° |
| 2026-04-20 20:39 | 26.11465 | -77.22808 | 10299 ft | 341 kts | 4° |
| 2026-04-20 20:39 | 26.13828 | -77.22546 | 9968 ft | 331 kts | 4° |
| 2026-04-20 20:40 | 26.16114 | -77.22292 | 9649 ft | 321 kts | 4° |
| 2026-04-20 20:40 | 26.18314 | -77.22048 | 9326 ft | 307 kts | 4° |
| 2026-04-20 20:40 | 26.20403 | -77.21816 | 9005 ft | 296 kts | 4° |
| 2026-04-20 20:40 | 26.22443 | -77.21590 | 8681 ft | 286 kts | 4° |
| 2026-04-20 20:41 | 26.24418 | -77.21370 | 8358 ft | 278 kts | 4° |
| 2026-04-20 20:41 | 26.26336 | -77.21157 | 8001 ft | 272 kts | 4° |
| 2026-04-20 20:41 | 26.28194 | -77.20951 | 7589 ft | 269 kts | 4° |
| 2026-04-20 20:41 | 26.30071 | -77.20742 | 7172 ft | 267 kts | 4° |
| 2026-04-20 20:42 | 26.31908 | -77.20538 | 6757 ft | 265 kts | 5° |
| 2026-04-20 20:42 | 26.33758 | -77.20332 | 6293 ft | 264 kts | 5° |
| 2026-04-20 20:42 | 26.35586 | -77.20129 | 5835 ft | 264 kts | 5° |
| 2026-04-20 20:42 | 26.37423 | -77.19924 | 5374 ft | 263 kts | 5° |
| 2026-04-20 20:43 | 26.39258 | -77.19720 | 4911 ft | 263 kts | 5° |
| 2026-04-20 20:43 | 26.41053 | -77.19519 | 4396 ft | 249 kts | 5° |
| 2026-04-20 20:43 | 26.42730 | -77.19331 | 4049 ft | 237 kts | 5° |
| 2026-04-20 20:43 | 26.44348 | -77.19151 | 3585 ft | 232 kts | 5° |
| 2026-04-20 20:44 | 26.45956 | -77.18972 | 3118 ft | 228 kts | 6° |
| 2026-04-20 20:44 | 26.47516 | -77.18798 | 2660 ft | 225 kts | 6° |
| 2026-04-20 20:44 | 26.49049 | -77.18588 | 2353 ft | 214 kts | 14° |
| 2026-04-20 20:44 | 26.50221 | -77.17725 | 2044 ft | 192 kts | 52° |
| 2026-04-20 20:45 | 26.50809 | -77.16478 | 1692 ft | 172 kts | 68° |
| 2026-04-20 20:45 | 26.50832 | -77.15225 | 1333 ft | 151 kts | 88° |
| 2026-04-20 20:45 | 26.50760 | -77.14111 | 933 ft | 137 kts | 88° |
| 2026-04-20 20:45 | 26.50812 | -77.13131 | 701 ft | 122 kts | 78° |
| 2026-04-20 20:46 | 26.50913 | -77.12187 | 508 ft | 121 kts | 80° |
| 2026-04-20 20:46 | 26.50931 | -77.11233 | 353 ft | 122 kts | 83° |
| 2026-04-20 20:46 | 26.50960 | -77.10277 | 175 ft | 122 kts | 82° |
| 2026-04-20 20:46 | 26.50990 | -77.09351 | 13 ft | 116 kts | 83° |
| 2026-04-20 20:47 | 26.51012 | -77.08572 | 16 ft | 74 kts | 88° |
| 2026-04-20 20:47 | 26.51021 | -77.08250 | 18 ft | 24 kts | 85° |
| 2026-04-20 20:47 | 26.51066 | -77.08082 | 18 ft | 22 kts | 58° |
| 2026-04-20 20:47 | 26.51150 | -77.07933 | 17 ft | 22 kts | 58° |
| 2026-04-20 20:48 | 26.51214 | -77.07820 | 16 ft | 8 kts | 55° |
| 2026-04-20 20:48 | 26.51266 | -77.07787 | 15 ft | 6 kts | 12° |
| 2026-04-20 20:48 | 26.51280 | -77.07783 | 15 ft | 0 kts | 12° |